sensor_id;sensor_type;location;lat;lon;timestamp;P1;durP1;ratioP1;P2;durP2;ratioP2
78887;SDS011;68276;49.326;8.690;2023-11-21T00:01:06;3.23;;;0.90;;
78887;SDS011;68276;49.326;8.690;2023-11-21T00:03:33;6.03;;;1.25;;
78887;SDS011;68276;49.326;8.690;2023-11-21T00:05:59;4.32;;;0.90;;
78887;SDS011;68276;49.326;8.690;2023-11-21T00:08:27;3.88;;;0.90;;
78887;SDS011;68276;49.326;8.690;2023-11-21T00:10:53;3.55;;;0.88;;
78887;SDS011;68276;49.326;8.690;2023-11-21T00:13:20;5.80;;;1.00;;
78887;SDS011;68276;49.326;8.690;2023-11-21T00:15:45;4.88;;;0.80;;
78887;SDS011;68276;49.326;8.690;2023-11-21T00:18:10;6.03;;;1.10;;
78887;SDS011;68276;49.326;8.690;2023-11-21T00:20:36;5.17;;;1.13;;
78887;SDS011;68276;49.326;8.690;2023-11-21T00:23:01;3.38;;;0.70;;
78887;SDS011;68276;49.326;8.690;2023-11-21T00:25:27;6.20;;;1.45;;
78887;SDS011;68276;49.326;8.690;2023-11-21T00:27:52;5.15;;;1.15;;
78887;SDS011;68276;49.326;8.690;2023-11-21T00:30:19;9.38;;;1.58;;
78887;SDS011;68276;49.326;8.690;2023-11-21T00:32:45;6.90;;;1.35;;
78887;SDS011;68276;49.326;8.690;2023-11-21T00:35:10;11.53;;;1.20;;
78887;SDS011;68276;49.326;8.690;2023-11-21T00:37:36;3.25;;;1.00;;
78887;SDS011;68276;49.326;8.690;2023-11-21T00:40:01;4.60;;;0.93;;
78887;SDS011;68276;49.326;8.690;2023-11-21T00:42:30;5.18;;;1.00;;
78887;SDS011;68276;49.326;8.690;2023-11-21T00:44:58;7.30;;;1.40;;
78887;SDS011;68276;49.326;8.690;2023-11-21T00:47:23;8.45;;;1.27;;
78887;SDS011;68276;49.326;8.690;2023-11-21T00:49:48;6.00;;;1.20;;
78887;SDS011;68276;49.326;8.690;2023-11-21T00:52:14;5.90;;;1.00;;
78887;SDS011;68276;49.326;8.690;2023-11-21T00:54:40;3.80;;;1.02;;
78887;SDS011;68276;49.326;8.690;2023-11-21T00:57:06;7.00;;;1.10;;
78887;SDS011;68276;49.326;8.690;2023-11-21T00:59:33;4.65;;;1.00;;
78887;SDS011;68276;49.326;8.690;2023-11-21T01:01:59;7.32;;;1.63;;
78887;SDS011;68276;49.326;8.690;2023-11-21T01:04:26;5.32;;;1.30;;
78887;SDS011;68276;49.326;8.690;2023-11-21T01:06:52;8.73;;;1.50;;
78887;SDS011;68276;49.326;8.690;2023-11-21T01:09:17;6.22;;;1.20;;
78887;SDS011;68276;49.326;8.690;2023-11-21T01:11:43;6.13;;;1.10;;
78887;SDS011;68276;49.326;8.690;2023-11-21T01:14:09;5.97;;;1.00;;
78887;SDS011;68276;49.326;8.690;2023-11-21T01:16:35;8.23;;;1.45;;
78887;SDS011;68276;49.326;8.690;2023-11-21T01:19:00;6.97;;;1.17;;
78887;SDS011;68276;49.326;8.690;2023-11-21T01:21:26;5.15;;;1.25;;
78887;SDS011;68276;49.326;8.690;2023-11-21T01:23:53;6.00;;;1.00;;
78887;SDS011;68276;49.326;8.690;2023-11-21T01:26:20;4.50;;;0.82;;
78887;SDS011;68276;49.326;8.690;2023-11-21T01:28:45;5.55;;;1.30;;
78887;SDS011;68276;49.326;8.690;2023-11-21T01:31:10;6.67;;;1.27;;
78887;SDS011;68276;49.326;8.690;2023-11-21T01:33:36;6.82;;;1.27;;
78887;SDS011;68276;49.326;8.690;2023-11-21T01:36:01;5.20;;;1.33;;
78887;SDS011;68276;49.326;8.690;2023-11-21T01:38:27;8.67;;;1.40;;
78887;SDS011;68276;49.326;8.690;2023-11-21T01:40:52;9.93;;;1.03;;
78887;SDS011;68276;49.326;8.690;2023-11-21T01:43:17;5.35;;;1.00;;
78887;SDS011;68276;49.326;8.690;2023-11-21T01:45:43;7.88;;;1.10;;
78887;SDS011;68276;49.326;8.690;2023-11-21T01:48:10;7.70;;;1.00;;
78887;SDS011;68276;49.326;8.690;2023-11-21T01:50:36;4.88;;;1.20;;
78887;SDS011;68276;49.326;8.690;2023-11-21T01:53:01;5.55;;;1.40;;
78887;SDS011;68276;49.326;8.690;2023-11-21T01:55:28;4.75;;;1.25;;
78887;SDS011;68276;49.326;8.690;2023-11-21T01:57:55;4.35;;;0.93;;
78887;SDS011;68276;49.326;8.690;2023-11-21T02:00:22;4.13;;;1.05;;
78887;SDS011;68276;49.326;8.690;2023-11-21T02:02:49;8.55;;;1.20;;
78887;SDS011;68276;49.326;8.690;2023-11-21T02:05:15;6.03;;;0.90;;
78887;SDS011;68276;49.326;8.690;2023-11-21T02:07:43;4.40;;;0.95;;
78887;SDS011;68276;49.326;8.690;2023-11-21T02:10:09;4.97;;;1.20;;
78887;SDS011;68276;49.326;8.690;2023-11-21T02:12:35;6.65;;;1.23;;
78887;SDS011;68276;49.326;8.690;2023-11-21T02:15:03;6.00;;;1.00;;
78887;SDS011;68276;49.326;8.690;2023-11-21T02:17:39;6.40;;;1.40;;
78887;SDS011;68276;49.326;8.690;2023-11-21T02:20:19;3.75;;;1.02;;
78887;SDS011;68276;49.326;8.690;2023-11-21T02:22:49;4.57;;;1.02;;
78887;SDS011;68276;49.326;8.690;2023-11-21T02:25:23;4.10;;;1.00;;
78887;SDS011;68276;49.326;8.690;2023-11-21T02:27:58;4.78;;;1.02;;
78887;SDS011;68276;49.326;8.690;2023-11-21T02:30:24;4.38;;;1.05;;
78887;SDS011;68276;49.326;8.690;2023-11-21T02:32:50;6.20;;;1.33;;
78887;SDS011;68276;49.326;8.690;2023-11-21T02:35:19;7.03;;;1.02;;
78887;SDS011;68276;49.326;8.690;2023-11-21T02:37:50;2.67;;;0.88;;
78887;SDS011;68276;49.326;8.690;2023-11-21T02:40:16;4.68;;;0.90;;
78887;SDS011;68276;49.326;8.690;2023-11-21T02:42:49;3.53;;;0.88;;
78887;SDS011;68276;49.326;8.690;2023-11-21T02:45:18;5.10;;;1.00;;
78887;SDS011;68276;49.326;8.690;2023-11-21T02:47:46;4.32;;;1.00;;
78887;SDS011;68276;49.326;8.690;2023-11-21T02:50:12;4.80;;;1.10;;
78887;SDS011;68276;49.326;8.690;2023-11-21T02:52:38;3.88;;;0.90;;
78887;SDS011;68276;49.326;8.690;2023-11-21T02:55:05;3.85;;;0.77;;
78887;SDS011;68276;49.326;8.690;2023-11-21T02:57:32;5.22;;;0.90;;
78887;SDS011;68276;49.326;8.690;2023-11-21T02:59:58;5.00;;;0.98;;
78887;SDS011;68276;49.326;8.690;2023-11-21T03:02:25;5.00;;;1.10;;
78887;SDS011;68276;49.326;8.690;2023-11-21T03:04:50;4.47;;;1.00;;
78887;SDS011;68276;49.326;8.690;2023-11-21T03:07:16;3.92;;;1.15;;
78887;SDS011;68276;49.326;8.690;2023-11-21T03:09:41;3.50;;;0.90;;
78887;SDS011;68276;49.326;8.690;2023-11-21T03:12:07;6.88;;;0.80;;
78887;SDS011;68276;49.326;8.690;2023-11-21T03:14:33;7.47;;;1.13;;
78887;SDS011;68276;49.326;8.690;2023-11-21T03:16:59;5.70;;;1.00;;
78887;SDS011;68276;49.326;8.690;2023-11-21T03:19:24;3.20;;;0.80;;
78887;SDS011;68276;49.326;8.690;2023-11-21T03:21:50;3.33;;;0.90;;
78887;SDS011;68276;49.326;8.690;2023-11-21T03:24:18;4.55;;;0.70;;
78887;SDS011;68276;49.326;8.690;2023-11-21T03:26:45;5.75;;;0.80;;
78887;SDS011;68276;49.326;8.690;2023-11-21T03:29:11;5.10;;;0.90;;
78887;SDS011;68276;49.326;8.690;2023-11-21T03:31:37;6.97;;;1.33;;
78887;SDS011;68276;49.326;8.690;2023-11-21T03:34:02;4.38;;;0.90;;
78887;SDS011;68276;49.326;8.690;2023-11-21T03:36:28;7.53;;;1.13;;
78887;SDS011;68276;49.326;8.690;2023-11-21T03:38:54;6.95;;;1.02;;
78887;SDS011;68276;49.326;8.690;2023-11-21T03:43:45;3.10;;;0.80;;
78887;SDS011;68276;49.326;8.690;2023-11-21T03:46:11;5.05;;;1.00;;
78887;SDS011;68276;49.326;8.690;2023-11-21T03:48:37;3.17;;;0.98;;
78887;SDS011;68276;49.326;8.690;2023-11-21T03:51:03;5.00;;;0.85;;
78887;SDS011;68276;49.326;8.690;2023-11-21T03:53:29;7.03;;;1.10;;
78887;SDS011;68276;49.326;8.690;2023-11-21T03:55:54;3.40;;;0.90;;
78887;SDS011;68276;49.326;8.690;2023-11-21T03:58:20;6.10;;;1.20;;
78887;SDS011;68276;49.326;8.690;2023-11-21T04:00:46;2.63;;;0.70;;
78887;SDS011;68276;49.326;8.690;2023-11-21T04:03:14;3.60;;;1.17;;
78887;SDS011;68276;49.326;8.690;2023-11-21T04:05:39;6.78;;;1.10;;
78887;SDS011;68276;49.326;8.690;2023-11-21T04:10:31;6.57;;;1.10;;
78887;SDS011;68276;49.326;8.690;2023-11-21T04:12:56;5.77;;;1.20;;
78887;SDS011;68276;49.326;8.690;2023-11-21T04:15:22;3.60;;;0.90;;
78887;SDS011;68276;49.326;8.690;2023-11-21T04:17:47;3.42;;;1.20;;
78887;SDS011;68276;49.326;8.690;2023-11-21T04:20:12;8.30;;;1.40;;
78887;SDS011;68276;49.326;8.690;2023-11-21T04:22:38;5.97;;;1.10;;
78887;SDS011;68276;49.326;8.690;2023-11-21T04:25:11;6.15;;;1.70;;
78887;SDS011;68276;49.326;8.690;2023-11-21T04:27:42;4.65;;;1.20;;
78887;SDS011;68276;49.326;8.690;2023-11-21T04:30:09;5.68;;;1.33;;
78887;SDS011;68276;49.326;8.690;2023-11-21T04:32:35;7.95;;;1.75;;
78887;SDS011;68276;49.326;8.690;2023-11-21T04:35:01;6.23;;;1.70;;
78887;SDS011;68276;49.326;8.690;2023-11-21T04:37:27;10.38;;;1.52;;
78887;SDS011;68276;49.326;8.690;2023-11-21T04:39:52;6.73;;;1.70;;
78887;SDS011;68276;49.326;8.690;2023-11-21T04:42:17;8.33;;;1.77;;
78887;SDS011;68276;49.326;8.690;2023-11-21T04:44:43;7.20;;;1.57;;
78887;SDS011;68276;49.326;8.690;2023-11-21T04:47:09;9.38;;;1.92;;
78887;SDS011;68276;49.326;8.690;2023-11-21T04:49:35;8.20;;;1.60;;
78887;SDS011;68276;49.326;8.690;2023-11-21T04:52:00;10.20;;;2.03;;
78887;SDS011;68276;49.326;8.690;2023-11-21T04:54:26;8.40;;;1.73;;
78887;SDS011;68276;49.326;8.690;2023-11-21T04:56:52;8.13;;;1.58;;
78887;SDS011;68276;49.326;8.690;2023-11-21T04:59:17;8.43;;;2.00;;
78887;SDS011;68276;49.326;8.690;2023-11-21T05:01:42;10.90;;;2.10;;
78887;SDS011;68276;49.326;8.690;2023-11-21T05:04:08;7.60;;;1.77;;
78887;SDS011;68276;49.326;8.690;2023-11-21T05:06:33;7.68;;;1.83;;
78887;SDS011;68276;49.326;8.690;2023-11-21T05:09:01;5.32;;;1.80;;
78887;SDS011;68276;49.326;8.690;2023-11-21T05:11:26;5.78;;;1.65;;
78887;SDS011;68276;49.326;8.690;2023-11-21T05:13:52;8.20;;;2.30;;
78887;SDS011;68276;49.326;8.690;2023-11-21T05:16:18;6.95;;;1.23;;
78887;SDS011;68276;49.326;8.690;2023-11-21T05:18:45;7.03;;;1.50;;
78887;SDS011;68276;49.326;8.690;2023-11-21T05:21:10;5.55;;;1.65;;
78887;SDS011;68276;49.326;8.690;2023-11-21T05:23:36;4.90;;;1.20;;
78887;SDS011;68276;49.326;8.690;2023-11-21T05:26:02;4.80;;;1.40;;
78887;SDS011;68276;49.326;8.690;2023-11-21T05:28:28;8.88;;;1.85;;
78887;SDS011;68276;49.326;8.690;2023-11-21T05:30:53;5.10;;;1.47;;
78887;SDS011;68276;49.326;8.690;2023-11-21T05:33:19;5.82;;;1.48;;
78887;SDS011;68276;49.326;8.690;2023-11-21T05:35:44;6.47;;;1.47;;
78887;SDS011;68276;49.326;8.690;2023-11-21T05:38:10;3.90;;;1.40;;
78887;SDS011;68276;49.326;8.690;2023-11-21T05:40:36;6.05;;;1.50;;
78887;SDS011;68276;49.326;8.690;2023-11-21T05:43:02;6.93;;;1.70;;
78887;SDS011;68276;49.326;8.690;2023-11-21T05:45:27;4.40;;;1.50;;
78887;SDS011;68276;49.326;8.690;2023-11-21T05:50:19;5.80;;;1.67;;
78887;SDS011;68276;49.326;8.690;2023-11-21T05:52:45;16.30;;;2.08;;
78887;SDS011;68276;49.326;8.690;2023-11-21T05:55:11;6.57;;;1.63;;
78887;SDS011;68276;49.326;8.690;2023-11-21T05:57:38;8.95;;;1.63;;
78887;SDS011;68276;49.326;8.690;2023-11-21T06:00:05;5.63;;;1.42;;
78887;SDS011;68276;49.326;8.690;2023-11-21T06:02:36;4.90;;;1.52;;
78887;SDS011;68276;49.326;8.690;2023-11-21T06:05:04;6.68;;;1.60;;
78887;SDS011;68276;49.326;8.690;2023-11-21T06:07:31;5.63;;;1.60;;
78887;SDS011;68276;49.326;8.690;2023-11-21T06:09:56;6.57;;;1.80;;
78887;SDS011;68276;49.326;8.690;2023-11-21T06:12:22;5.65;;;1.40;;
78887;SDS011;68276;49.326;8.690;2023-11-21T06:14:47;7.23;;;1.70;;
78887;SDS011;68276;49.326;8.690;2023-11-21T06:17:13;5.57;;;1.50;;
78887;SDS011;68276;49.326;8.690;2023-11-21T06:19:38;5.95;;;1.60;;
78887;SDS011;68276;49.326;8.690;2023-11-21T06:22:04;5.43;;;1.65;;
78887;SDS011;68276;49.326;8.690;2023-11-21T06:24:30;6.50;;;1.90;;
78887;SDS011;68276;49.326;8.690;2023-11-21T06:26:56;6.93;;;1.75;;
78887;SDS011;68276;49.326;8.690;2023-11-21T06:29:22;6.55;;;1.90;;
78887;SDS011;68276;49.326;8.690;2023-11-21T06:31:47;7.10;;;1.60;;
78887;SDS011;68276;49.326;8.690;2023-11-21T06:34:13;5.60;;;1.70;;
78887;SDS011;68276;49.326;8.690;2023-11-21T06:36:39;6.13;;;1.77;;
78887;SDS011;68276;49.326;8.690;2023-11-21T06:39:04;8.27;;;2.20;;
78887;SDS011;68276;49.326;8.690;2023-11-21T06:41:33;6.45;;;1.70;;
78887;SDS011;68276;49.326;8.690;2023-11-21T06:43:59;6.18;;;1.98;;
78887;SDS011;68276;49.326;8.690;2023-11-21T06:46:25;7.75;;;1.98;;
78887;SDS011;68276;49.326;8.690;2023-11-21T06:48:50;5.70;;;1.80;;
78887;SDS011;68276;49.326;8.690;2023-11-21T06:51:16;8.52;;;1.83;;
78887;SDS011;68276;49.326;8.690;2023-11-21T06:53:41;6.13;;;1.67;;
78887;SDS011;68276;49.326;8.690;2023-11-21T06:56:19;6.28;;;1.83;;
78887;SDS011;68276;49.326;8.690;2023-11-21T06:58:45;7.78;;;2.30;;
78887;SDS011;68276;49.326;8.690;2023-11-21T07:01:11;6.07;;;1.85;;
78887;SDS011;68276;49.326;8.690;2023-11-21T07:03:38;8.18;;;1.70;;
78887;SDS011;68276;49.326;8.690;2023-11-21T07:06:03;6.87;;;2.10;;
78887;SDS011;68276;49.326;8.690;2023-11-21T07:08:29;6.50;;;1.70;;
78887;SDS011;68276;49.326;8.690;2023-11-21T07:10:54;6.60;;;2.20;;
78887;SDS011;68276;49.326;8.690;2023-11-21T07:13:20;6.83;;;2.07;;
78887;SDS011;68276;49.326;8.690;2023-11-21T07:15:46;6.43;;;1.83;;
78887;SDS011;68276;49.326;8.690;2023-11-21T07:20:38;7.80;;;1.90;;
78887;SDS011;68276;49.326;8.690;2023-11-21T07:23:03;5.95;;;1.70;;
78887;SDS011;68276;49.326;8.690;2023-11-21T07:25:29;8.13;;;2.03;;
78887;SDS011;68276;49.326;8.690;2023-11-21T07:27:54;7.32;;;2.03;;
78887;SDS011;68276;49.326;8.690;2023-11-21T07:30:20;7.20;;;2.20;;
78887;SDS011;68276;49.326;8.690;2023-11-21T07:32:47;7.90;;;2.35;;
78887;SDS011;68276;49.326;8.690;2023-11-21T07:35:13;7.55;;;2.13;;
78887;SDS011;68276;49.326;8.690;2023-11-21T07:37:39;9.48;;;2.72;;
78887;SDS011;68276;49.326;8.690;2023-11-21T07:40:04;8.50;;;2.72;;
78887;SDS011;68276;49.326;8.690;2023-11-21T07:42:30;9.82;;;2.72;;
78887;SDS011;68276;49.326;8.690;2023-11-21T07:44:56;8.52;;;2.95;;
78887;SDS011;68276;49.326;8.690;2023-11-21T07:47:21;7.83;;;2.57;;
78887;SDS011;68276;49.326;8.690;2023-11-21T07:49:47;7.72;;;3.08;;
78887;SDS011;68276;49.326;8.690;2023-11-21T07:52:13;9.05;;;3.25;;
78887;SDS011;68276;49.326;8.690;2023-11-21T07:54:41;10.95;;;3.17;;
78887;SDS011;68276;49.326;8.690;2023-11-21T07:57:07;10.02;;;2.95;;
78887;SDS011;68276;49.326;8.690;2023-11-21T07:59:32;9.30;;;2.97;;
78887;SDS011;68276;49.326;8.690;2023-11-21T08:01:58;7.15;;;2.72;;
78887;SDS011;68276;49.326;8.690;2023-11-21T08:04:23;6.87;;;2.43;;
78887;SDS011;68276;49.326;8.690;2023-11-21T08:06:48;10.50;;;3.85;;
78887;SDS011;68276;49.326;8.690;2023-11-21T08:09:14;9.43;;;3.60;;
78887;SDS011;68276;49.326;8.690;2023-11-21T08:11:42;11.27;;;3.92;;
78887;SDS011;68276;49.326;8.690;2023-11-21T08:14:07;9.98;;;4.20;;
78887;SDS011;68276;49.326;8.690;2023-11-21T08:16:33;10.30;;;3.97;;
78887;SDS011;68276;49.326;8.690;2023-11-21T08:18:58;13.18;;;4.18;;
78887;SDS011;68276;49.326;8.690;2023-11-21T08:21:23;11.10;;;4.43;;
78887;SDS011;68276;49.326;8.690;2023-11-21T08:23:49;11.30;;;4.80;;
78887;SDS011;68276;49.326;8.690;2023-11-21T08:26:19;14.93;;;5.38;;
78887;SDS011;68276;49.326;8.690;2023-11-21T08:28:45;14.50;;;5.35;;
78887;SDS011;68276;49.326;8.690;2023-11-21T08:31:12;12.55;;;5.22;;
78887;SDS011;68276;49.326;8.690;2023-11-21T08:33:37;12.60;;;5.32;;
78887;SDS011;68276;49.326;8.690;2023-11-21T08:36:06;11.60;;;4.37;;
78887;SDS011;68276;49.326;8.690;2023-11-21T08:38:35;12.70;;;5.25;;
78887;SDS011;68276;49.326;8.690;2023-11-21T08:41:06;11.88;;;4.97;;
78887;SDS011;68276;49.326;8.690;2023-11-21T08:43:34;12.93;;;5.22;;
78887;SDS011;68276;49.326;8.690;2023-11-21T08:46:07;13.75;;;5.32;;
78887;SDS011;68276;49.326;8.690;2023-11-21T08:48:53;11.60;;;5.15;;
78887;SDS011;68276;49.326;8.690;2023-11-21T08:51:18;12.67;;;5.07;;
78887;SDS011;68276;49.326;8.690;2023-11-21T08:53:43;11.17;;;4.97;;
78887;SDS011;68276;49.326;8.690;2023-11-21T08:56:13;11.35;;;4.97;;
78887;SDS011;68276;49.326;8.690;2023-11-21T08:58:41;14.73;;;6.50;;
78887;SDS011;68276;49.326;8.690;2023-11-21T09:01:06;16.60;;;5.97;;
78887;SDS011;68276;49.326;8.690;2023-11-21T09:03:32;13.25;;;5.28;;
78887;SDS011;68276;49.326;8.690;2023-11-21T09:05:59;13.85;;;5.60;;
78887;SDS011;68276;49.326;8.690;2023-11-21T09:08:25;16.67;;;6.78;;
78887;SDS011;68276;49.326;8.690;2023-11-21T09:10:53;14.80;;;6.40;;
78887;SDS011;68276;49.326;8.690;2023-11-21T09:13:18;15.20;;;5.93;;
78887;SDS011;68276;49.326;8.690;2023-11-21T09:15:44;15.82;;;6.03;;
78887;SDS011;68276;49.326;8.690;2023-11-21T09:18:12;13.75;;;6.30;;
78887;SDS011;68276;49.326;8.690;2023-11-21T09:20:38;13.27;;;5.32;;
78887;SDS011;68276;49.326;8.690;2023-11-21T09:23:04;15.10;;;6.20;;
78887;SDS011;68276;49.326;8.690;2023-11-21T09:25:29;12.23;;;5.50;;
78887;SDS011;68276;49.326;8.690;2023-11-21T09:27:55;14.75;;;6.03;;
78887;SDS011;68276;49.326;8.690;2023-11-21T09:32:47;13.60;;;5.57;;
78887;SDS011;68276;49.326;8.690;2023-11-21T09:35:13;12.30;;;5.15;;
78887;SDS011;68276;49.326;8.690;2023-11-21T09:37:39;12.20;;;4.85;;
78887;SDS011;68276;49.326;8.690;2023-11-21T09:40:04;11.90;;;4.97;;
78887;SDS011;68276;49.326;8.690;2023-11-21T09:42:39;10.73;;;4.18;;
78887;SDS011;68276;49.326;8.690;2023-11-21T09:45:27;9.52;;;3.75;;
78887;SDS011;68276;49.326;8.690;2023-11-21T09:47:54;9.88;;;3.70;;
78887;SDS011;68276;49.326;8.690;2023-11-21T09:50:20;10.40;;;3.90;;
78887;SDS011;68276;49.326;8.690;2023-11-21T09:55:38;10.45;;;4.15;;
78887;SDS011;68276;49.326;8.690;2023-11-21T09:58:06;11.35;;;3.92;;
78887;SDS011;68276;49.326;8.690;2023-11-21T10:00:36;9.60;;;3.60;;
78887;SDS011;68276;49.326;8.690;2023-11-21T10:03:05;10.00;;;4.20;;
78887;SDS011;68276;49.326;8.690;2023-11-21T10:05:30;7.77;;;3.30;;
78887;SDS011;68276;49.326;8.690;2023-11-21T10:07:59;8.95;;;3.10;;
78887;SDS011;68276;49.326;8.690;2023-11-21T10:10:27;8.65;;;2.92;;
78887;SDS011;68276;49.326;8.690;2023-11-21T10:12:55;8.80;;;3.00;;
78887;SDS011;68276;49.326;8.690;2023-11-21T10:15:22;9.00;;;3.40;;
78887;SDS011;68276;49.326;8.690;2023-11-21T10:17:50;8.52;;;2.92;;
78887;SDS011;68276;49.326;8.690;2023-11-21T10:20:18;7.10;;;2.10;;
78887;SDS011;68276;49.326;8.690;2023-11-21T10:22:45;7.88;;;2.30;;
78887;SDS011;68276;49.326;8.690;2023-11-21T10:25:11;8.20;;;3.00;;
78887;SDS011;68276;49.326;8.690;2023-11-21T10:27:39;8.52;;;3.28;;
78887;SDS011;68276;49.326;8.690;2023-11-21T10:30:06;10.98;;;3.70;;
78887;SDS011;68276;49.326;8.690;2023-11-21T10:32:33;10.38;;;3.75;;
78887;SDS011;68276;49.326;8.690;2023-11-21T10:34:59;11.35;;;4.13;;
78887;SDS011;68276;49.326;8.690;2023-11-21T10:37:25;12.48;;;4.18;;
78887;SDS011;68276;49.326;8.690;2023-11-21T10:39:56;8.82;;;3.08;;
78887;SDS011;68276;49.326;8.690;2023-11-21T10:42:23;15.85;;;6.90;;
78887;SDS011;68276;49.326;8.690;2023-11-21T10:44:49;15.32;;;5.00;;
78887;SDS011;68276;49.326;8.690;2023-11-21T10:47:15;15.18;;;5.28;;
78887;SDS011;68276;49.326;8.690;2023-11-21T10:49:44;19.85;;;7.05;;
78887;SDS011;68276;49.326;8.690;2023-11-21T10:52:12;14.32;;;4.43;;
78887;SDS011;68276;49.326;8.690;2023-11-21T10:54:42;17.98;;;5.82;;
78887;SDS011;68276;49.326;8.690;2023-11-21T10:57:08;13.15;;;4.10;;
78887;SDS011;68276;49.326;8.690;2023-11-21T10:59:33;15.00;;;5.15;;
78887;SDS011;68276;49.326;8.690;2023-11-21T11:02:01;11.48;;;4.45;;
78887;SDS011;68276;49.326;8.690;2023-11-21T11:04:31;15.27;;;5.15;;
78887;SDS011;68276;49.326;8.690;2023-11-21T11:06:57;16.25;;;5.57;;
78887;SDS011;68276;49.326;8.690;2023-11-21T11:09:26;17.70;;;5.65;;
78887;SDS011;68276;49.326;8.690;2023-11-21T11:11:51;18.55;;;5.30;;
78887;SDS011;68276;49.326;8.690;2023-11-21T11:14:18;10.23;;;3.20;;
78887;SDS011;68276;49.326;8.690;2023-11-21T11:16:44;15.57;;;5.43;;
78887;SDS011;68276;49.326;8.690;2023-11-21T11:19:10;15.15;;;6.28;;
78887;SDS011;68276;49.326;8.690;2023-11-21T11:22:29;17.27;;;5.50;;
78887;SDS011;68276;49.326;8.690;2023-11-21T11:30:09;15.60;;;4.50;;
78887;SDS011;68276;49.326;8.690;2023-11-21T11:35:26;13.85;;;4.68;;
78887;SDS011;68276;49.326;8.690;2023-11-21T11:37:58;23.73;;;7.18;;
78887;SDS011;68276;49.326;8.690;2023-11-21T11:40:26;10.30;;;3.95;;
78887;SDS011;68276;49.326;8.690;2023-11-21T11:43:05;23.20;;;7.63;;
78887;SDS011;68276;49.326;8.690;2023-11-21T11:45:32;10.20;;;3.70;;
78887;SDS011;68276;49.326;8.690;2023-11-21T11:48:00;10.35;;;3.95;;
78887;SDS011;68276;49.326;8.690;2023-11-21T11:50:27;15.00;;;5.50;;
78887;SDS011;68276;49.326;8.690;2023-11-21T11:52:53;13.55;;;4.45;;
78887;SDS011;68276;49.326;8.690;2023-11-21T11:55:23;9.85;;;3.80;;
78887;SDS011;68276;49.326;8.690;2023-11-21T11:57:55;12.65;;;5.07;;
78887;SDS011;68276;49.326;8.690;2023-11-21T12:02:54;20.27;;;7.38;;
78887;SDS011;68276;49.326;8.690;2023-11-21T12:05:26;10.68;;;4.75;;
78887;SDS011;68276;49.326;8.690;2023-11-21T12:07:59;8.88;;;3.35;;
78887;SDS011;68276;49.326;8.690;2023-11-21T12:10:27;10.38;;;4.00;;
78887;SDS011;68276;49.326;8.690;2023-11-21T12:12:57;10.57;;;4.00;;
78887;SDS011;68276;49.326;8.690;2023-11-21T12:15:23;9.85;;;3.60;;
78887;SDS011;68276;49.326;8.690;2023-11-21T12:17:50;8.93;;;3.58;;
78887;SDS011;68276;49.326;8.690;2023-11-21T12:20:20;10.13;;;3.13;;
78887;SDS011;68276;49.326;8.690;2023-11-21T12:22:51;7.85;;;3.03;;
78887;SDS011;68276;49.326;8.690;2023-11-21T12:25:21;7.70;;;2.80;;
78887;SDS011;68276;49.326;8.690;2023-11-21T12:27:54;8.00;;;2.95;;
78887;SDS011;68276;49.326;8.690;2023-11-21T12:32:53;15.52;;;5.43;;
78887;SDS011;68276;49.326;8.690;2023-11-21T12:35:22;10.77;;;4.05;;
78887;SDS011;68276;49.326;8.690;2023-11-21T12:37:50;13.00;;;3.40;;
78887;SDS011;68276;49.326;8.690;2023-11-21T12:40:17;14.45;;;5.28;;
78887;SDS011;68276;49.326;8.690;2023-11-21T12:42:44;18.27;;;5.95;;
78887;SDS011;68276;49.326;8.690;2023-11-21T12:50:37;14.00;;;5.55;;
78887;SDS011;68276;49.326;8.690;2023-11-21T12:53:07;9.63;;;3.35;;
78887;SDS011;68276;49.326;8.690;2023-11-21T12:55:35;8.40;;;2.92;;
78887;SDS011;68276;49.326;8.690;2023-11-21T12:58:04;10.07;;;3.38;;
78887;SDS011;68276;49.326;8.690;2023-11-21T13:00:35;7.32;;;2.50;;
78887;SDS011;68276;49.326;8.690;2023-11-21T13:03:03;6.38;;;2.15;;
78887;SDS011;68276;49.326;8.690;2023-11-21T13:05:33;6.65;;;2.30;;
78887;SDS011;68276;49.326;8.690;2023-11-21T13:08:01;7.05;;;2.05;;
78887;SDS011;68276;49.326;8.690;2023-11-21T13:10:29;5.57;;;1.83;;
78887;SDS011;68276;49.326;8.690;2023-11-21T13:12:56;7.30;;;1.70;;
78887;SDS011;68276;49.326;8.690;2023-11-21T13:15:30;6.85;;;2.20;;
78887;SDS011;68276;49.326;8.690;2023-11-21T13:17:58;8.80;;;2.53;;
78887;SDS011;68276;49.326;8.690;2023-11-21T13:22:55;8.52;;;1.42;;
78887;SDS011;68276;49.326;8.690;2023-11-21T13:25:29;5.53;;;1.42;;
78887;SDS011;68276;49.326;8.690;2023-11-21T13:27:56;5.60;;;1.38;;
78887;SDS011;68276;49.326;8.690;2023-11-21T13:30:24;3.72;;;1.35;;
78887;SDS011;68276;49.326;8.690;2023-11-21T13:32:59;5.68;;;1.80;;
78887;SDS011;68276;49.326;8.690;2023-11-21T13:35:33;5.88;;;2.00;;
78887;SDS011;68276;49.326;8.690;2023-11-21T13:38:12;5.43;;;1.90;;
78887;SDS011;68276;49.326;8.690;2023-11-21T13:40:47;7.88;;;2.20;;
78887;SDS011;68276;49.326;8.690;2023-11-21T13:43:15;6.70;;;2.10;;
78887;SDS011;68276;49.326;8.690;2023-11-21T13:45:43;6.07;;;2.00;;
78887;SDS011;68276;49.326;8.690;2023-11-21T13:48:11;6.07;;;2.03;;
78887;SDS011;68276;49.326;8.690;2023-11-21T13:50:42;6.82;;;2.08;;
78887;SDS011;68276;49.326;8.690;2023-11-21T13:53:28;7.15;;;2.10;;
78887;SDS011;68276;49.326;8.690;2023-11-21T13:55:54;4.47;;;1.50;;
78887;SDS011;68276;49.326;8.690;2023-11-21T13:58:20;6.22;;;2.00;;
78887;SDS011;68276;49.326;8.690;2023-11-21T14:01:00;8.05;;;2.65;;
78887;SDS011;68276;49.326;8.690;2023-11-21T14:03:26;9.50;;;2.30;;
78887;SDS011;68276;49.326;8.690;2023-11-21T14:06:12;7.20;;;2.35;;
78887;SDS011;68276;49.326;8.690;2023-11-21T14:08:45;6.97;;;2.22;;
78887;SDS011;68276;49.326;8.690;2023-11-21T14:11:12;7.35;;;2.28;;
78887;SDS011;68276;49.326;8.690;2023-11-21T14:13:42;7.95;;;2.03;;
78887;SDS011;68276;49.326;8.690;2023-11-21T14:16:11;6.80;;;1.73;;
78887;SDS011;68276;49.326;8.690;2023-11-21T14:18:39;8.80;;;2.22;;
78887;SDS011;68276;49.326;8.690;2023-11-21T14:21:15;6.50;;;1.90;;
78887;SDS011;68276;49.326;8.690;2023-11-21T14:23:41;5.53;;;1.83;;
78887;SDS011;68276;49.326;8.690;2023-11-21T14:28:33;7.55;;;2.28;;
78887;SDS011;68276;49.326;8.690;2023-11-21T14:31:00;7.07;;;1.80;;
78887;SDS011;68276;49.326;8.690;2023-11-21T14:33:26;4.93;;;1.73;;
78887;SDS011;68276;49.326;8.690;2023-11-21T14:35:52;5.63;;;1.98;;
78887;SDS011;68276;49.326;8.690;2023-11-21T14:38:17;5.00;;;1.83;;
78887;SDS011;68276;49.326;8.690;2023-11-21T14:40:43;11.40;;;2.85;;
78887;SDS011;68276;49.326;8.690;2023-11-21T14:43:09;6.85;;;1.98;;
78887;SDS011;68276;49.326;8.690;2023-11-21T14:45:35;10.65;;;2.15;;
78887;SDS011;68276;49.326;8.690;2023-11-21T14:48:00;7.40;;;2.30;;
78887;SDS011;68276;49.326;8.690;2023-11-21T14:50:40;8.07;;;2.13;;
78887;SDS011;68276;49.326;8.690;2023-11-21T14:55:34;14.45;;;4.05;;
78887;SDS011;68276;49.326;8.690;2023-11-21T14:58:15;13.90;;;4.30;;
78887;SDS011;68276;49.326;8.690;2023-11-21T15:00:48;9.45;;;2.75;;
78887;SDS011;68276;49.326;8.690;2023-11-21T15:03:16;15.85;;;5.07;;
78887;SDS011;68276;49.326;8.690;2023-11-21T15:05:59;12.80;;;3.88;;
78887;SDS011;68276;49.326;8.690;2023-11-21T15:08:50;7.20;;;2.08;;
78887;SDS011;68276;49.326;8.690;2023-11-21T15:11:40;8.00;;;1.88;;
78887;SDS011;68276;49.326;8.690;2023-11-21T15:14:06;4.90;;;1.40;;
78887;SDS011;68276;49.326;8.690;2023-11-21T15:16:35;7.70;;;1.65;;
78887;SDS011;68276;49.326;8.690;2023-11-21T15:19:07;6.20;;;1.30;;
78887;SDS011;68276;49.326;8.690;2023-11-21T15:21:34;5.93;;;1.38;;
78887;SDS011;68276;49.326;8.690;2023-11-21T15:26:26;5.07;;;1.27;;
78887;SDS011;68276;49.326;8.690;2023-11-21T15:28:51;7.80;;;1.92;;